Pagrindinis puslapis
METAR-TAF:

METAR-TAF

Oro uostai :

Leonardo da Vinčio-Fjumičino oro uostas

Roma-Fjumičinas, Italija

platuma: 41-48N, ilguma: 012-14E, Aukštis: 2 m

Dabartinis oras

Ataskaita buvo paskelbta 40 minutes, ne 04:20 UTC
Vėjas 4 kt iš Rytų
Temperatūra 4°C
Drėgmė 93%
Slėgis 1027 hPa
Matomumas 10 km arba daugiau
nėra debesų žemiau 1500 m ir nėra kamuolinių lietaus debesų

METAR: LIRF 220420Z 09004KT CAVOK 04/03 Q1027 NOSIG

Laikas: 06:00 (05:00 UTC)

Prognozė

Ataskaita buvo paskelbta 6 valandos ir 0 minutes, ne 23:00 UTC
Prognozė galioja nuo 22 metu 00 UTC su 23 metu 06 UTC
Vėjas 5 kt nuo kintamojo kryptimis
Matomumas 10 km arba daugiau
nėra debesų žemiau 1500 m ir nėra kamuolinių lietaus debesų
Laikinai
nuo 22 metu 00 UTC su 22 metu 05 UTC
Matomumas: 3000 m
rūkana
Tapsmas
nuo 22 metu 10 UTC su 22 metu 12 UTC
Vėjas 10 kt iš Vakarų
Tapsmas
nuo 22 metu 16 UTC su 22 metu 18 UTC
Vėjas 5 kt nuo kintamojo kryptimis

TAF: LIRF 212300Z 2200/2306 VRB05KT CAVOK TEMPO 2200/2205 3000 BR BECMG 2210/2212 28010KT BECMG 2216/2218 VRB05KT

Orai ataskaitas ir orų prognozės (METAR, TAF).

turimą stotys yra geltonos ir raudonos taškus žemėlapyje.

Perkelti pele per norėdami pamatyti stoties vardą.

Tada spustelėkite, norėdami matyti oro stebėjimo ir prognozės.

Norėdami pakeisti žemėlapį: spustelėkite ant žalios mygtukų su juodo kryžiaus žemyn,; žalią mygtuką su brūkšneliu, jei norite nutolinti; arba žalių rodyklių gretimoms žemėlapius.


METAR-TAF: